Time;durP1;ratioP1;P1;durP2;ratioP2;P2;SDS_P1;SDS_P2;PMS_P1;PMS_P2;Temp;Humidity;BMP_temperature;BMP_pressure;BME280_temperature;BME280_humidity;BME280_pressure;Samples;Min_cycle;Max_cycle;Signal;HPM_P1;HPM_P2
2021/01/18 00:02:00;;;;;;;7.53;4.93;;;6.00;66.70;;;;;;5005241;28;20083;-77
2021/01/18 00:04:26;;;;;;;7.00;4.72;;;5.90;66.60;;;;;;5006127;28;20037;-77
2021/01/18 00:06:51;;;;;;;5.93;4.05;;;6.00;66.60;;;;;;5003038;28;20112;-77
2021/01/18 00:09:17;;;;;;;6.50;4.30;;;6.00;66.60;;;;;;5007793;28;20025;-77
2021/01/18 00:11:45;;;;;;;6.63;4.13;;;6.00;66.60;;;;;;5007242;28;20604;-77
2021/01/18 00:14:11;;;;;;;6.25;4.00;;;6.00;66.60;;;;;;5007432;28;20065;-77
2021/01/18 00:16:36;;;;;;;7.25;4.90;;;6.00;66.60;;;;;;5002158;28;20054;-77
2021/01/18 00:19:02;;;;;;;5.85;4.05;;;6.00;66.60;;;;;;5007404;28;20033;-77
2021/01/18 00:21:28;;;;;;;6.45;3.72;;;6.00;66.60;;;;;;5005905;28;20022;-77
2021/01/18 00:23:53;;;;;;;5.55;3.47;;;6.10;66.70;;;;;;5006939;28;20037;-77
2021/01/18 00:26:20;;;;;;;4.95;3.33;;;6.10;66.70;;;;;;5006538;28;20030;-77
2021/01/18 00:28:45;;;;;;;4.60;3.20;;;6.10;66.70;;;;;;5007360;28;20033;-77
2021/01/18 00:31:12;;;;;;;4.50;3.08;;;6.10;66.70;;;;;;5005046;28;20034;-77
2021/01/18 00:33:38;;;;;;;5.45;3.80;;;6.20;66.80;;;;;;5005756;28;20056;-77
2021/01/18 00:36:05;;;;;;;4.22;2.78;;;6.20;66.80;;;;;;5006965;28;20050;-77
2021/01/18 00:38:30;;;;;;;4.45;2.75;;;6.20;66.90;;;;;;5005503;28;20504;-77
2021/01/18 00:40:57;;;;;;;4.40;2.90;;;6.20;66.90;;;;;;5007341;28;20125;-77
2021/01/18 00:43:22;;;;;;;3.55;2.40;;;6.20;67.00;;;;;;5006820;28;20026;-77
2021/01/18 00:45:48;;;;;;;4.28;2.38;;;6.30;67.00;;;;;;5003776;28;20043;-77
2021/01/18 00:48:13;;;;;;;3.17;2.05;;;6.30;67.00;;;;;;5005683;28;20372;-77
2021/01/18 00:50:39;;;;;;;2.78;1.88;;;6.30;67.00;;;;;;5005290;28;20402;-77
2021/01/18 00:53:04;;;;;;;3.53;1.52;;;6.40;67.00;;;;;;5005885;28;20030;-78
2021/01/18 00:55:30;;;;;;;2.20;1.67;;;6.40;67.00;;;;;;5005412;28;20034;-77
2021/01/18 00:57:55;;;;;;;2.42;1.95;;;6.40;67.00;;;;;;5007013;28;20406;-78
2021/01/18 01:00:26;;;;;;;1.45;1.25;;;6.50;67.10;;;;;;5001859;28;20049;-77
2021/01/18 01:02:52;;;;;;;1.80;1.48;;;6.40;67.10;;;;;;5002710;28;20105;-77
2021/01/18 01:05:28;;;;;;;1.73;1.48;;;6.50;67.10;;;;;;5007463;28;20455;-77
2021/01/18 01:07:58;;;;;;;1.40;1.30;;;6.50;67.20;;;;;;5008469;28;20091;-78
2021/01/18 01:10:31;;;;;;;2.65;1.98;;;6.50;67.10;;;;;;5010973;28;20105;-78
2021/01/18 01:13:01;;;;;;;3.10;1.85;;;6.60;67.20;;;;;;5010736;28;20173;-77
2021/01/18 01:15:27;;;;;;;2.60;1.90;;;6.60;67.10;;;;;;5004527;28;20041;-77
2021/01/18 01:17:53;;;;;;;3.58;1.92;;;6.60;67.00;;;;;;5011087;28;20032;-80
2021/01/18 01:20:21;;;;;;;3.03;1.85;;;6.60;66.90;;;;;;5011019;28;20030;-77
2021/01/18 01:22:47;;;;;;;2.55;1.67;;;6.60;66.90;;;;;;4999425;28;20533;-77
2021/01/18 01:25:14;;;;;;;3.08;1.70;;;6.60;66.90;;;;;;5010973;28;20030;-77
2021/01/18 01:27:41;;;;;;;3.80;1.90;;;6.60;66.90;;;;;;5007431;28;20514;-77
2021/01/18 01:30:10;;;;;;;4.25;2.38;;;6.60;66.90;;;;;;5014409;28;20100;-77
2021/01/18 01:32:43;;;;;;;4.82;2.80;;;6.60;66.90;;;;;;5009149;28;20042;-77
2021/01/18 01:35:10;;;;;;;4.05;2.60;;;6.60;67.10;;;;;;5011174;28;20037;-77
2021/01/18 01:37:37;;;;;;;8.63;3.22;;;6.60;67.00;;;;;;5007758;28;20124;-77
2021/01/18 01:40:08;;;;;;;4.57;2.80;;;6.60;66.90;;;;;;5015322;28;20076;-77
2021/01/18 01:42:34;;;;;;;6.00;3.00;;;6.70;67.00;;;;;;5018207;28;20030;-77
2021/01/18 01:44:59;;;;;;;3.50;2.55;;;6.70;66.90;;;;;;5013644;28;20045;-77
2021/01/18 01:47:32;;;;;;;3.97;2.67;;;6.60;66.80;;;;;;5006048;28;20411;-78
2021/01/18 01:49:59;;;;;;;6.00;2.63;;;6.70;67.00;;;;;;5010289;28;20038;-78
2021/01/18 01:52:27;;;;;;;4.40;2.33;;;6.60;66.80;;;;;;5019528;28;20042;-80
2021/01/18 01:54:57;;;;;;;5.10;2.38;;;6.80;67.00;;;;;;5016184;28;20079;-77
2021/01/18 01:57:23;;;;;;;4.72;2.97;;;6.70;66.90;;;;;;4996869;28;20092;-77
2021/01/18 01:59:50;;;;;;;4.38;2.38;;;6.60;66.80;;;;;;5018184;28;20025;-78
2021/01/18 02:02:15;;;;;;;3.47;2.28;;;6.60;66.80;;;;;;5012933;28;20042;-77
2021/01/18 02:04:41;;;;;;;3.20;2.03;;;6.60;66.80;;;;;;5015319;28;20541;-77
2021/01/18 02:07:27;;;;;;;4.82;2.53;;;6.60;66.90;;;;;;5012160;28;20038;-78
2021/01/18 02:09:53;;;;;;;3.42;1.88;;;6.70;67.40;;;;;;5019103;28;20038;-77
2021/01/18 02:12:20;;;;;;;5.05;2.03;;;6.70;66.90;;;;;;5014393;28;20563;-77
2021/01/18 02:15:22;;;;;;;5.32;1.90;;;6.60;66.90;;;;;;5013020;28;20393;-77
2021/01/18 02:18:11;;;;;;;3.00;1.98;;;6.60;67.40;;;;;;5017119;28;20026;-78
2021/01/18 02:21:14;;;;;;;3.22;1.70;;;6.60;67.30;;;;;;5018297;28;20034;-77
2021/01/18 02:24:21;;;;;;;1.73;1.08;;;6.60;67.30;;;;;;5015711;28;20061;-77
2021/01/18 02:27:16;;;;;;;2.65;1.27;;;6.60;67.30;;;;;;5016646;28;20067;-77
2021/01/18 02:30:09;;;;;;;1.70;1.05;;;6.50;67.10;;;;;;5014629;28;20088;-77
2021/01/18 02:32:58;;;;;;;2.85;1.52;;;6.50;67.00;;;;;;5012490;28;20053;-77
2021/01/18 02:35:27;;;;;;;5.47;1.75;;;6.50;66.90;;;;;;5014511;28;20036;-78
2021/01/18 02:38:03;;;;;;;2.25;1.30;;;6.50;66.60;;;;;;5018795;28;20037;-78
2021/01/18 02:40:35;;;;;;;4.97;1.25;;;6.40;66.70;;;;;;5015774;28;20030;-78
2021/01/18 02:43:11;;;;;;;4.05;1.38;;;6.40;66.80;;;;;;5014734;28;20029;-78
2021/01/18 02:45:38;;;;;;;2.92;1.30;;;6.40;67.10;;;;;;5013960;28;20387;-77
2021/01/18 02:48:05;;;;;;;2.63;1.05;;;6.40;67.00;;;;;;5010642;28;20029;-78
2021/01/18 02:50:31;;;;;;;2.80;1.30;;;6.50;67.20;;;;;;5021092;28;20044;-79
2021/01/18 02:52:57;;;;;;;2.55;1.40;;;6.50;67.30;;;;;;5012251;28;20131;-78
2021/01/18 02:55:23;;;;;;;5.13;2.53;;;6.50;67.40;;;;;;5015751;28;20061;-78
2021/01/18 02:57:51;;;;;;;1.65;0.95;;;6.50;67.50;;;;;;5015133;28;20029;-78
2021/01/18 03:00:27;;;;;;;3.47;1.30;;;6.50;67.60;;;;;;5019543;28;20052;-80
2021/01/18 03:03:17;;;;;;;4.35;2.15;;;6.60;67.90;;;;;;5017558;28;20730;-78
2021/01/18 03:05:48;;;;;;;3.30;1.50;;;6.60;68.30;;;;;;5017047;28;20045;-79
2021/01/18 03:08:25;;;;;;;2.03;1.05;;;6.60;68.10;;;;;;5014681;28;20034;-79
2021/01/18 03:11:03;;;;;;;1.63;1.40;;;6.70;68.00;;;;;;5010775;28;20022;-78
2021/01/18 03:13:37;;;;;;;3.97;1.10;;;6.70;67.90;;;;;;5019496;28;20049;-77
2021/01/18 03:16:13;;;;;;;2.33;1.20;;;6.80;67.90;;;;;;5008089;28;20030;-78
2021/01/18 03:18:42;;;;;;;6.70;2.33;;;6.80;68.00;;;;;;5018601;28;20133;-78
2021/01/18 03:21:08;;;;;;;2.60;1.38;;;6.80;67.80;;;;;;5016182;28;20167;-79
2021/01/18 03:23:39;;;;;;;3.67;1.55;;;6.90;67.80;;;;;;5018677;28;20053;-78
2021/01/18 03:26:05;;;;;;;4.47;1.90;;;6.90;67.90;;;;;;5016164;28;20049;-78
2021/01/18 03:28:30;;;;;;;3.67;1.77;;;7.10;67.90;;;;;;5012635;28;20045;-78
2021/01/18 03:30:56;;;;;;;3.72;1.85;;;6.90;67.80;;;;;;5013846;28;20029;-79
2021/01/18 03:33:24;;;;;;;3.38;1.60;;;7.00;67.80;;;;;;5011198;28;20034;-79
2021/01/18 03:35:51;;;;;;;3.70;2.05;;;7.10;67.80;;;;;;5019116;28;20064;-79
2021/01/18 03:38:17;;;;;;;4.00;2.00;;;7.00;67.60;;;;;;5010531;28;20041;-79
2021/01/18 03:40:42;;;;;;;3.70;1.85;;;7.00;67.60;;;;;;5018101;28;20030;-78
2021/01/18 03:43:08;;;;;;;2.78;1.70;;;7.10;67.60;;;;;;5011049;28;20041;-79
2021/01/18 03:45:36;;;;;;;3.00;1.67;;;7.10;67.60;;;;;;5007831;28;20126;-78
2021/01/18 03:48:03;;;;;;;2.83;1.85;;;7.10;67.60;;;;;;5009794;28;20072;-79
2021/01/18 03:50:29;;;;;;;2.30;1.73;;;7.10;67.60;;;;;;5008657;23;20520;-76
2021/01/18 03:52:54;;;;;;;3.03;1.58;;;7.10;67.50;;;;;;5014676;28;20040;-80
2021/01/18 03:55:20;;;;;;;2.72;1.27;;;7.10;67.50;;;;;;5014793;28;20549;-76
2021/01/18 03:57:48;;;;;;;3.05;1.80;;;7.10;67.50;;;;;;5035058;28;20548;-78
2021/01/18 04:00:15;;;;;;;2.30;1.40;;;7.10;67.50;;;;;;5014883;28;20088;-77
2021/01/18 04:02:40;;;;;;;2.50;1.20;;;7.10;67.40;;;;;;5022720;28;20031;-77
2021/01/18 04:05:07;;;;;;;3.70;1.63;;;7.20;67.50;;;;;;5029280;28;20045;-77
2021/01/18 04:07:32;;;;;;;3.60;2.83;;;7.10;67.40;;;;;;5026036;28;20072;-77
2021/01/18 04:09:58;;;;;;;2.38;1.52;;;7.10;67.50;;;;;;5031280;28;20029;-77
2021/01/18 04:12:23;;;;;;;3.53;1.70;;;7.10;67.50;;;;;;5024165;28;20025;-76
2021/01/18 04:14:52;;;;;;;4.00;1.77;;;7.10;67.50;;;;;;5032132;28;20152;-77
2021/01/18 04:17:17;;;;;;;2.45;1.85;;;7.10;67.50;;;;;;5026018;28;20042;-77
2021/01/18 04:19:43;;;;;;;3.72;1.67;;;7.10;67.50;;;;;;5030389;28;20038;-76
2021/01/18 04:22:09;;;;;;;2.95;1.33;;;7.10;67.50;;;;;;5029340;28;20417;-78
2021/01/18 04:24:35;;;;;;;3.50;1.27;;;7.20;67.50;;;;;;5039632;28;20049;-77
2021/01/18 04:27:02;;;;;;;2.63;1.60;;;7.10;67.50;;;;;;5034620;28;20037;-77
2021/01/18 04:29:28;;;;;;;1.90;1.30;;;7.10;67.50;;;;;;5033226;28;20064;-77
2021/01/18 04:31:54;;;;;;;2.97;1.33;;;7.10;67.50;;;;;;5031163;28;20107;-77
2021/01/18 04:34:20;;;;;;;2.42;1.27;;;7.20;67.60;;;;;;5028020;28;20597;-77
2021/01/18 04:36:45;;;;;;;2.63;1.20;;;7.30;67.70;;;;;;5039286;28;20044;-81
2021/01/18 04:39:13;;;;;;;1.90;1.00;;;7.10;67.60;;;;;;5030582;28;20101;-77
2021/01/18 04:41:43;;;;;;;3.90;1.27;;;7.10;67.60;;;;;;5038760;28;20034;-77
2021/01/18 04:44:14;;;;;;;2.38;1.42;;;7.10;67.70;;;;;;5037078;28;20061;-77
2021/01/18 04:46:41;;;;;;;4.65;1.58;;;7.10;67.60;;;;;;5036008;28;20060;-77
2021/01/18 04:49:11;;;;;;;2.80;1.88;;;7.10;67.60;;;;;;5037225;28;20124;-77
2021/01/18 04:51:41;;;;;;;3.97;1.33;;;7.20;67.70;;;;;;5031759;28;20124;-78
2021/01/18 04:54:14;;;;;;;3.38;1.50;;;7.20;67.80;;;;;;5041265;28;20036;-77
2021/01/18 04:57:09;;;;;;;2.33;1.40;;;7.10;67.80;;;;;;5028765;28;20026;-78
2021/01/18 04:59:49;;;;;;;3.92;2.03;;;7.20;68.10;;;;;;5015952;28;20533;-79
2021/01/18 05:02:20;;;;;;;3.17;1.45;;;7.10;68.00;;;;;;5032375;28;20083;-78
2021/01/18 05:04:47;;;;;;;3.45;1.30;;;7.10;67.70;;;;;;5039795;28;20048;-78
2021/01/18 05:07:35;;;;;;;2.00;1.10;;;7.10;67.70;;;;;;5031166;28;20041;-78
2021/01/18 05:10:08;;;;;;;4.05;1.13;;;7.10;68.20;;;;;;5037496;28;20029;-77
2021/01/18 05:12:40;;;;;;;3.80;1.17;;;7.20;67.90;;;;;;5031733;28;20029;-77
2021/01/18 05:15:10;;;;;;;1.63;0.90;;;7.10;67.80;;;;;;5033097;28;20036;-77
2021/01/18 05:17:42;;;;;;;2.92;1.13;;;7.20;67.90;;;;;;5032180;28;20398;-77
2021/01/18 05:20:16;;;;;;;3.10;0.80;;;7.20;67.90;;;;;;5031925;28;20072;-77
2021/01/18 05:22:43;;;;;;;4.53;1.10;;;7.20;68.00;;;;;;5029258;28;20038;-77
2021/01/18 05:25:10;;;;;;;0.90;0.70;;;7.20;67.80;;;;;;5031903;28;20398;-78
2021/01/18 05:28:21;;;;;;;1.75;0.82;;;7.20;67.70;;;;;;5035765;28;20124;-77
2021/01/18 05:30:47;;;;;;;3.67;1.20;;;7.20;68.20;;;;;;5025471;28;20036;-77
2021/01/18 05:33:14;;;;;;;1.30;0.82;;;7.20;67.60;;;;;;5036118;28;20033;-76
2021/01/18 05:35:49;;;;;;;1.90;1.27;;;7.20;67.60;;;;;;5033411;28;20037;-79
2021/01/18 05:38:16;;;;;;;0.93;0.73;;;7.20;67.70;;;;;;5030310;28;20033;-77
2021/01/18 05:40:45;;;;;;;3.05;0.95;;;7.20;67.60;;;;;;5034487;28;20033;-79
2021/01/18 05:43:13;;;;;;;1.17;0.60;;;7.20;67.70;;;;;;5037458;28;20079;-77
2021/01/18 05:45:40;;;;;;;1.75;1.00;;;7.20;67.70;;;;;;5031207;28;20495;-77
2021/01/18 05:48:08;;;;;;;1.40;0.75;;;7.20;67.70;;;;;;5030634;28;20525;-78
2021/01/18 05:50:35;;;;;;;1.75;0.82;;;7.20;67.70;;;;;;5036193;28;20558;-77
2021/01/18 05:53:01;;;;;;;1.85;1.00;;;7.20;67.70;;;;;;5030715;28;20033;-81
2021/01/18 05:55:29;;;;;;;1.70;1.30;;;7.20;67.60;;;;;;5032962;28;20052;-77
2021/01/18 05:57:59;;;;;;;1.25;0.90;;;7.10;67.60;;;;;;5035559;28;20056;-77
2021/01/18 06:00:36;;;;;;;1.58;0.82;;;7.20;67.70;;;;;;5031495;28;20037;-78
2021/01/18 06:03:12;;;;;;;2.50;0.82;;;7.10;67.80;;;;;;5030267;28;20128;-76
2021/01/18 06:05:42;;;;;;;2.80;1.17;;;7.10;67.80;;;;;;5036009;28;20151;-77
2021/01/18 06:08:15;;;;;;;1.05;0.68;;;7.20;67.60;;;;;;5034305;28;20041;-79
2021/01/18 06:10:42;;;;;;;2.42;1.00;;;7.20;67.70;;;;;;5037709;28;20064;-77
2021/01/18 06:13:20;;;;;;;1.25;0.70;;;7.10;67.60;;;;;;5038785;28;20144;-79
2021/01/18 06:15:47;;;;;;;1.10;1.00;;;7.10;67.80;;;;;;5029812;28;20033;-78
2021/01/18 06:18:15;;;;;;;3.17;1.33;;;7.10;67.70;;;;;;5034230;28;20025;-77
2021/01/18 06:20:42;;;;;;;1.60;1.00;;;7.10;67.70;;;;;;5032152;28;20108;-77
2021/01/18 06:23:08;;;;;;;1.73;1.13;;;7.10;67.70;;;;;;5034153;28;20045;-77
2021/01/18 06:25:36;;;;;;;4.30;1.08;;;7.10;67.70;;;;;;5024502;28;20422;-76
2021/01/18 06:28:02;;;;;;;1.83;0.90;;;7.10;67.80;;;;;;5024321;28;20117;-74
2021/01/18 06:30:29;;;;;;;2.60;1.38;;;7.10;67.80;;;;;;5022233;28;20502;-72
2021/01/18 06:33:00;;;;;;;1.25;0.80;;;7.10;67.80;;;;;;5029906;28;20025;-75
2021/01/18 06:35:31;;;;;;;1.60;1.10;;;7.10;67.80;;;;;;5029327;28;20033;-73
2021/01/18 06:38:04;;;;;;;2.20;1.08;;;7.10;67.80;;;;;;5029630;28;20410;-74
2021/01/18 06:40:36;;;;;;;4.20;1.17;;;7.10;67.80;;;;;;5038122;28;20034;-76
2021/01/18 06:43:03;;;;;;;1.92;0.88;;;7.10;67.70;;;;;;5032003;28;20490;-75
2021/01/18 06:45:31;;;;;;;3.28;1.00;;;7.00;67.70;;;;;;5031527;28;20065;-73
2021/01/18 06:47:58;;;;;;;1.80;0.90;;;7.10;67.80;;;;;;5029825;28;20042;-75
2021/01/18 06:50:29;;;;;;;2.45;0.98;;;7.00;67.70;;;;;;5025985;28;20044;-77
2021/01/18 06:52:55;;;;;;;2.47;1.38;;;7.10;67.80;;;;;;5025939;28;20045;-76
2021/01/18 06:55:27;;;;;;;1.50;1.20;;;7.10;67.80;;;;;;5034726;28;20476;-76
2021/01/18 06:58:11;;;;;;;3.05;1.10;;;7.10;67.90;;;;;;5025625;28;20025;-78
2021/01/18 07:00:40;;;;;;;3.58;1.40;;;7.00;67.70;;;;;;5025293;28;20038;-75
2021/01/18 07:03:38;;;;;;;1.75;0.85;;;7.00;67.80;;;;;;5033157;28;20037;-75
2021/01/18 07:06:28;;;;;;;1.75;1.05;;;7.00;68.10;;;;;;5009619;28;20037;-74
2021/01/18 07:08:58;;;;;;;4.35;1.65;;;7.10;68.10;;;;;;5032585;28;20040;-74
2021/01/18 07:11:24;;;;;;;1.80;1.20;;;7.00;67.70;;;;;;5031600;28;20032;-77
2021/01/18 07:13:50;;;;;;;1.75;0.80;;;7.00;67.60;;;;;;5036618;28;20048;-77
2021/01/18 07:16:20;;;;;;;2.20;1.25;;;7.20;67.80;;;;;;5029216;28;20080;-75
2021/01/18 07:18:52;;;;;;;2.90;0.90;;;7.00;67.80;;;;;;5035609;28;20442;-77
2021/01/18 07:21:18;;;;;;;3.08;1.33;;;7.10;67.90;;;;;;5033349;28;20041;-75
2021/01/18 07:23:53;;;;;;;1.23;1.00;;;7.00;68.30;;;;;;5028241;28;20026;-75
2021/01/18 07:26:38;;;;;;;1.88;1.02;;;7.00;67.90;;;;;;5033623;28;20044;-75
2021/01/18 07:29:07;;;;;;;2.70;1.70;;;7.00;68.10;;;;;;5031639;28;21271;-73
2021/01/18 07:31:37;;;;;;;1.33;1.10;;;7.00;68.00;;;;;;5033987;28;20037;-73
2021/01/18 07:34:03;;;;;;;2.53;1.10;;;7.00;68.00;;;;;;5030131;28;20087;-73
2021/01/18 07:36:31;;;;;;;4.30;1.30;;;7.00;68.00;;;;;;5034028;28;20401;-73
2021/01/18 07:38:58;;;;;;;2.25;1.10;;;7.00;68.10;;;;;;5030068;28;20068;-77
2021/01/18 07:41:36;;;;;;;2.45;0.90;;;7.00;68.10;;;;;;5037098;28;20561;-75
2021/01/18 07:44:04;;;;;;;1.75;1.00;;;7.10;68.40;;;;;;5030501;28;20441;-73
2021/01/18 07:46:29;;;;;;;2.15;1.10;;;7.10;68.20;;;;;;5029021;28;20125;-77
2021/01/18 07:49:19;;;;;;;2.25;1.25;;;7.10;68.30;;;;;;5036025;28;20096;-72
2021/01/18 07:51:45;;;;;;;1.00;0.82;;;7.10;68.40;;;;;;5014762;28;20464;-75
2021/01/18 07:54:32;;;;;;;1.50;1.00;;;7.10;68.30;;;;;;5032951;28;20053;-76
2021/01/18 07:57:27;;;;;;;1.88;0.75;;;7.20;68.80;;;;;;5019666;28;20036;-74
2021/01/18 08:00:19;;;;;;;1.83;1.10;;;7.20;68.80;;;;;;5031147;28;20032;-76
2021/01/18 08:02:56;;;;;;;1.35;1.10;;;7.20;68.90;;;;;;4996019;28;20157;-76
2021/01/18 08:05:35;;;;;;;2.10;1.55;;;7.30;68.50;;;;;;5030703;28;20030;-77
2021/01/18 08:08:14;;;;;;;1.80;1.00;;;7.30;68.60;;;;;;5009366;28;20041;-77
2021/01/18 08:10:56;;;;;;;2.03;0.80;;;7.30;68.30;;;;;;5013591;28;20030;-75
2021/01/18 08:13:38;;;;;;;1.48;0.90;;;7.40;68.80;;;;;;5021609;28;20033;-76
2021/01/18 08:16:18;;;;;;;4.72;1.70;;;7.40;68.50;;;;;;5025052;28;20037;-78
2021/01/18 08:18:54;;;;;;;4.03;1.50;;;7.40;68.80;;;;;;5019447;28;20109;-76
2021/01/18 08:21:42;;;;;;;1.33;1.17;;;7.40;68.60;;;;;;5026733;28;20026;-78
2021/01/18 08:24:28;;;;;;;3.97;1.65;;;7.40;68.80;;;;;;5011124;28;20033;-79
2021/01/18 08:27:04;;;;;;;3.90;1.17;;;7.60;69.00;;;;;;5012633;28;20037;-76
2021/01/18 08:29:50;;;;;;;5.32;1.45;;;7.50;68.60;;;;;;5023563;28;20395;-75
2021/01/18 08:32:33;;;;;;;2.30;1.60;;;7.50;68.50;;;;;;5016358;28;20554;-76
2021/01/18 08:35:04;;;;;;;1.48;1.38;;;7.60;68.80;;;;;;5025267;28;20040;-77
2021/01/18 08:37:31;;;;;;;1.88;1.52;;;7.50;68.30;;;;;;5021753;28;20029;-76
2021/01/18 08:39:58;;;;;;;2.17;1.48;;;7.60;68.30;;;;;;5026446;28;20030;-77
2021/01/18 08:42:36;;;;;;;3.03;1.30;;;7.60;68.30;;;;;;5026669;28;20079;-77
2021/01/18 08:45:09;;;;;;;2.47;1.35;;;7.60;68.50;;;;;;5008736;28;20122;-76
2021/01/18 08:47:38;;;;;;;3.38;1.60;;;7.60;68.40;;;;;;5019379;28;20042;-76
2021/01/18 08:50:29;;;;;;;2.30;1.48;;;7.60;68.40;;;;;;5022361;28;20121;-76
2021/01/18 08:53:00;;;;;;;2.47;1.38;;;7.60;68.90;;;;;;5019410;28;20572;-76
2021/01/18 08:55:28;;;;;;;3.22;1.73;;;7.70;68.60;;;;;;5025213;28;20458;-77
2021/01/18 08:57:57;;;;;;;6.20;2.15;;;7.70;68.50;;;;;;5024271;28;20053;-77
2021/01/18 09:00:23;;;;;;;1.92;1.45;;;7.70;68.60;;;;;;5031639;28;20026;-77
2021/01/18 09:02:49;;;;;;;2.63;1.70;;;7.70;68.50;;;;;;5022954;28;20033;-78
2021/01/18 09:05:22;;;;;;;3.22;1.63;;;7.70;68.60;;;;;;5023046;28;20036;-77
2021/01/18 09:07:49;;;;;;;4.45;2.35;;;7.70;68.60;;;;;;5028577;28;20048;-74
2021/01/18 09:10:17;;;;;;;3.35;1.77;;;7.80;68.60;;;;;;5022268;28;20588;-78
2021/01/18 09:12:47;;;;;;;2.88;2.10;;;7.80;68.60;;;;;;5024937;28;20034;-77
2021/01/18 09:15:14;;;;;;;2.70;2.30;;;7.80;68.70;;;;;;5020587;28;20549;-77
2021/01/18 09:17:40;;;;;;;1.85;1.35;;;7.90;68.70;;;;;;5035544;28;20021;-77
2021/01/18 09:20:28;;;;;;;2.85;1.85;;;7.80;68.60;;;;;;5019025;28;20511;-76
2021/01/18 09:22:53;;;;;;;3.97;1.77;;;7.90;68.70;;;;;;5022883;28;20087;-76
2021/01/18 09:25:19;;;;;;;2.85;2.17;;;7.90;69.10;;;;;;5022552;28;20504;-74
2021/01/18 09:27:44;;;;;;;2.38;1.92;;;7.90;68.60;;;;;;5023937;28;20067;-74
2021/01/18 09:30:17;;;;;;;3.25;2.33;;;7.90;68.50;;;;;;5028960;28;20025;-76
2021/01/18 09:32:59;;;;;;;4.68;2.70;;;8.00;68.70;;;;;;5018483;28;20200;-76
2021/01/18 09:35:27;;;;;;;2.58;2.25;;;8.00;68.90;;;;;;5027986;28;20045;-74
2021/01/18 09:37:52;;;;;;;3.90;2.05;;;8.00;68.60;;;;;;5025183;28;20072;-74
2021/01/18 09:40:18;;;;;;;4.32;2.60;;;8.10;68.70;;;;;;5029334;28;20402;-74
2021/01/18 09:42:50;;;;;;;2.40;2.20;;;8.10;68.70;;;;;;5024368;28;20120;-73
2021/01/18 09:45:16;;;;;;;3.83;2.42;;;8.00;68.80;;;;;;5029577;28;20065;-74
2021/01/18 09:47:41;;;;;;;6.85;2.88;;;8.10;68.80;;;;;;5029119;28;20130;-74
2021/01/18 09:50:17;;;;;;;2.95;2.00;;;8.10;68.80;;;;;;5023328;28;20073;-75
2021/01/18 09:52:45;;;;;;;3.08;2.35;;;8.10;68.90;;;;;;5028569;28;20464;-75
2021/01/18 09:55:19;;;;;;;4.03;2.97;;;8.20;69.00;;;;;;5021792;28;20644;-73
2021/01/18 09:57:56;;;;;;;4.65;2.88;;;8.20;69.10;;;;;;5030729;28;20041;-75
2021/01/18 10:00:24;;;;;;;9.50;3.90;;;8.20;69.10;;;;;;5023947;28;20517;-75
2021/01/18 10:02:50;;;;;;;3.67;2.80;;;8.30;69.10;;;;;;5031440;28;20600;-74
2021/01/18 10:05:29;;;;;;;4.32;2.63;;;8.30;69.00;;;;;;5049460;23;20135;-75
2021/01/18 10:07:55;;;;;;;5.50;3.00;;;8.30;69.30;;;;;;5042023;28;20045;-76
2021/01/18 10:10:21;;;;;;;3.53;2.67;;;8.40;69.00;;;;;;5036229;28;20148;-76
2021/01/18 10:12:54;;;;;;;5.28;2.88;;;8.40;69.00;;;;;;5022548;28;20132;-76
2021/01/18 10:15:26;;;;;;;3.38;2.38;;;8.40;69.10;;;;;;5033888;28;20194;-76
2021/01/18 10:17:56;;;;;;;3.22;2.10;;;8.50;69.10;;;;;;5042059;28;20033;-76
2021/01/18 10:20:24;;;;;;;5.03;2.40;;;8.50;69.00;;;;;;5048051;28;20559;-76
2021/01/18 10:22:50;;;;;;;4.13;2.58;;;8.50;69.00;;;;;;5043812;28;20457;-76
2021/01/18 10:25:17;;;;;;;3.13;2.22;;;8.50;68.90;;;;;;5040659;28;20036;-76
2021/01/18 10:27:54;;;;;;;4.72;2.50;;;8.60;69.00;;;;;;5041777;28;20061;-76
2021/01/18 10:30:26;;;;;;;4.93;3.47;;;8.50;69.10;;;;;;5041164;28;20033;-76
2021/01/18 10:32:53;;;;;;;5.40;2.85;;;8.60;69.10;;;;;;5036884;28;20091;-74
2021/01/18 10:35:20;;;;;;;5.38;2.38;;;8.60;68.90;;;;;;5043836;28;20123;-76
2021/01/18 10:37:45;;;;;;;4.22;2.10;;;8.70;68.90;;;;;;5040946;28;20036;-76
2021/01/18 10:40:12;;;;;;;3.55;2.78;;;8.70;68.90;;;;;;5042731;28;20051;-76
2021/01/18 10:42:52;;;;;;;3.53;2.60;;;8.70;68.90;;;;;;5043024;28;20402;-75
2021/01/18 10:45:19;;;;;;;3.35;2.42;;;8.70;69.20;;;;;;5024853;28;20034;-76
2021/01/18 10:47:57;;;;;;;5.25;3.65;;;8.70;69.00;;;;;;5043940;28;20037;-76
2021/01/18 10:50:24;;;;;;;4.00;3.13;;;8.70;69.20;;;;;;5037581;28;20034;-77
2021/01/18 10:52:50;;;;;;;4.13;3.15;;;8.80;69.00;;;;;;5039795;28;20040;-73
2021/01/18 10:55:17;;;;;;;3.20;2.20;;;8.80;68.90;;;;;;5042990;28;20025;-75
2021/01/18 10:57:45;;;;;;;7.25;3.00;;;8.80;68.90;;;;;;5020547;28;20187;-74
2021/01/18 11:00:16;;;;;;;3.67;2.53;;;8.80;68.90;;;;;;5029653;28;20495;-75
2021/01/18 11:02:43;;;;;;;3.90;3.17;;;8.80;68.90;;;;;;5021254;28;20124;-75
2021/01/18 11:05:10;;;;;;;5.20;2.92;;;8.80;68.90;;;;;;5019823;28;20132;-74
2021/01/18 11:07:37;;;;;;;5.60;3.50;;;8.80;68.90;;;;;;5021342;28;20174;-75
2021/01/18 11:10:04;;;;;;;4.30;2.45;;;8.90;68.90;;;;;;5017589;28;20095;-74
2021/01/18 11:12:36;;;;;;;5.22;2.90;;;8.90;68.90;;;;;;5024827;28;20044;-73
2021/01/18 11:15:05;;;;;;;3.80;2.47;;;8.90;68.90;;;;;;5027167;28;20036;-74
2021/01/18 11:17:31;;;;;;;3.83;2.97;;;8.90;68.80;;;;;;5025258;28;20061;-75
2021/01/18 11:19:57;;;;;;;3.97;2.95;;;8.90;68.80;;;;;;5047262;28;20099;-73
2021/01/18 11:22:22;;;;;;;8.65;4.65;;;8.80;69.20;;;;;;5045571;28;20032;-74
2021/01/18 11:24:48;;;;;;;3.50;3.00;;;8.90;68.70;;;;;;5045678;28;20033;-74
2021/01/18 11:27:14;;;;;;;8.23;3.83;;;8.90;68.70;;;;;;5044089;28;20049;-75
2021/01/18 11:29:40;;;;;;;4.13;2.90;;;8.90;68.70;;;;;;5043647;28;20036;-75
2021/01/18 11:32:06;;;;;;;4.90;3.35;;;9.00;68.80;;;;;;5038528;28;20033;-73
2021/01/18 11:34:33;;;;;;;4.35;2.78;;;8.90;68.70;;;;;;5040703;28;20043;-74
2021/01/18 11:37:06;;;;;;;3.72;2.45;;;8.80;68.70;;;;;;5041201;28;20029;-73
2021/01/18 11:39:32;;;;;;;3.65;2.80;;;8.90;69.00;;;;;;5040705;28;20499;-74
2021/01/18 11:42:04;;;;;;;3.72;2.65;;;8.90;68.90;;;;;;5037834;28;20029;-72
2021/01/18 11:44:30;;;;;;;3.58;2.88;;;8.90;69.50;;;;;;5043899;28;20025;-74
2021/01/18 11:46:59;;;;;;;5.93;3.15;;;8.90;68.90;;;;;;5040430;28;20082;-73
2021/01/18 11:49:25;;;;;;;4.60;3.20;;;8.90;69.00;;;;;;5040581;28;20029;-78
2021/01/18 11:51:51;;;;;;;4.45;2.70;;;9.00;69.00;;;;;;5047341;28;20060;-81
2021/01/18 11:54:17;;;;;;;5.63;3.28;;;8.90;69.10;;;;;;5050824;28;20105;-81
2021/01/18 11:56:43;;;;;;;5.22;3.05;;;9.00;69.30;;;;;;5039295;28;20061;-79
2021/01/18 11:59:09;;;;;;;4.80;3.33;;;9.00;69.30;;;;;;5026550;28;20038;-82
2021/01/18 12:01:44;;;;;;;4.85;3.05;;;9.00;69.30;;;;;;5031432;28;20042;-80
2021/01/18 12:04:09;;;;;;;6.57;2.85;;;9.10;69.50;;;;;;5043595;28;20040;-81
2021/01/18 12:06:36;;;;;;;4.00;2.70;;;9.10;69.30;;;;;;5033963;28;20044;-81
2021/01/18 12:09:03;;;;;;;3.42;2.63;;;9.20;69.20;;;;;;5028712;28;20029;-79
2021/01/18 12:11:28;;;;;;;4.30;3.03;;;9.20;69.20;;;;;;5030998;28;20164;-79
2021/01/18 12:13:54;;;;;;;4.72;2.95;;;9.20;69.10;;;;;;5031961;28;20037;-79
2021/01/18 12:16:25;;;;;;;3.75;2.63;;;9.30;69.00;;;;;;5026311;28;20038;-80
2021/01/18 12:18:51;;;;;;;3.22;2.80;;;9.30;69.00;;;;;;5032041;28;20044;-80
2021/01/18 12:21:17;;;;;;;3.97;2.58;;;9.30;68.80;;;;;;5029007;28;20049;-79
2021/01/18 12:23:42;;;;;;;3.20;2.58;;;9.30;68.80;;;;;;5028502;28;20034;-81
2021/01/18 12:26:08;;;;;;;3.58;2.58;;;9.30;68.80;;;;;;5023141;28;20026;-79
2021/01/18 12:28:33;;;;;;;3.50;2.92;;;9.40;68.90;;;;;;5028193;28;20093;-80
2021/01/18 12:30:59;;;;;;;4.20;3.13;;;9.30;68.80;;;;;;5026869;28;20037;-79
2021/01/18 12:33:24;;;;;;;3.50;2.78;;;9.40;68.80;;;;;;5022060;28;20439;-82
2021/01/18 12:35:51;;;;;;;3.90;3.22;;;9.40;68.80;;;;;;5025299;28;20526;-83
2021/01/18 12:38:16;;;;;;;3.30;2.50;;;9.50;68.90;;;;;;5021446;28;20036;-81
2021/01/18 12:40:42;;;;;;;4.88;2.70;;;9.30;68.70;;;;;;5024851;28;20022;-83
2021/01/18 12:43:07;;;;;;;4.43;2.90;;;9.40;68.80;;;;;;5016035;28;20595;-82
2021/01/18 12:45:33;;;;;;;4.68;2.38;;;9.40;68.80;;;;;;5024170;28;20031;-81
2021/01/18 12:47:58;;;;;;;3.45;2.80;;;9.40;68.80;;;;;;5026601;28;20029;-82
2021/01/18 12:50:24;;;;;;;4.90;2.75;;;9.40;68.80;;;;;;5020986;28;20117;-82
2021/01/18 12:52:50;;;;;;;3.28;2.70;;;9.40;68.70;;;;;;5023000;28;20033;-82
2021/01/18 12:55:16;;;;;;;4.45;2.33;;;9.40;68.70;;;;;;5018361;28;20037;-81
2021/01/18 12:57:41;;;;;;;3.08;2.33;;;9.50;68.70;;;;;;5013425;28;20034;-81
2021/01/18 13:00:08;;;;;;;2.60;2.10;;;9.50;68.70;;;;;;5028348;28;20072;-83
2021/01/18 13:02:33;;;;;;;9.27;2.75;;;9.40;68.70;;;;;;5024825;28;20033;-80
2021/01/18 13:04:59;;;;;;;5.68;2.58;;;9.40;68.70;;;;;;5047869;28;20099;-82
2021/01/18 13:07:24;;;;;;;2.65;1.95;;;9.40;68.70;;;;;;5052667;28;20037;-82
2021/01/18 13:09:50;;;;;;;3.17;2.45;;;9.40;68.70;;;;;;5050464;28;20114;-82
2021/01/18 13:12:15;;;;;;;4.30;2.40;;;9.40;68.70;;;;;;5051435;28;20025;-83
2021/01/18 13:14:41;;;;;;;5.25;2.20;;;9.50;68.70;;;;;;5052815;28;20029;-81